Aérodrome :
LOGIN :

S'inscrire | Disclaimer

   EN    FR    IT 

 










Légende :    VFR   VFR Marginal   IFR   IFR Intensif   IFR Très Intensif
Visi : 
Plafond : 
>= 8 km
>= 3000ft
5 à 8 km
1000 à 3000 ft
1500m à 5 km
500 à 1000 ft
800 à 1500m
200 à 500 ft
< 800m
< 200 ft
Symboles :   Orages  Brouillard  Fortes neiges  Fortes précipitations  Vent > 20 kt
SIGMETs :   Divers  Orages  Givrage  Turbulence  Onde Orograph.  Cendres Volcan.







- Altitude de l'aérodrome : 870 ft
- Code IATA : ETZ
- Voir les cartes d'approche


LFJL - Metz Nancy Lorraine

DERNIER METAR :
  • 192000Z AUTO 25005KT 9999 SCT035/// SCT041/// BKN076/// 12/09 Q1022 BECMG 3000 BR BKN003

METARs EXPIRÉS :
  • 191930Z AUTO 26006KT 9999 NCD 12/09 Q1021 BECMG 3000 BR BKN003
  • 191900Z AUTO 24005KT 9999 FEW031/// OVC064/// 11/09 Q1021 NOSIG
  • 191830Z AUTO 28003KT 9999 FEW032/// OVC050/// 12/08 Q1021 NOSIG
  • 191800Z AUTO 29005KT 9999 SCT043/// 12/08 Q1020 NOSIG
  • 191730Z AUTO 31009KT 9999 FEW027/// SCT039/// 13/08 Q1020 NOSIG

TAF TAF LFJL
Valide du 19 à 18h jusqu'au 20 à 18h UTC


191700Z 1918/2018 30005KT 9999 FEW030 SCT060
BECMG 1921/1924 VRB02KT 3000 BR BKN003
TEMPO 2001/2007 0300 FG VV///
BECMG 2007/2009 6000 NSW BKN008
BECMG 2009/2011 BKN016
BECMG 2011/2013 BKN030 SCT060
BECMG 2013/2015 SCT030
BECMG 2015/2017 NSC
Pas de NOTAMs connus pour ce terrain.



MET'MAP, la Météo Aéronautique d'un coup d'oeil ! - Copyright ORBIFLY Décembre 2007 - Disclaimer

ORBIFLY MET'MAP TEAM :

Programmation & Développement : Alexandra Zaïnal
Conception & Développement : Baudouin d'Aumeries
Co-Programmation & Développement : Marc-Olivier Méhu
Soutien technique & logistique : Manuel Goepfert

Contact : metmap@orbifly.com




SOURCES & CREDITS :

   NOAA